CheckWX is a tool to help pilots better visualize weather data.  It is not intended as a substitute for an official pre-flight weather briefing.

05:49:56 UTC

KVAD TAF
Moody AFB Airport
Valdosta, Georgia, USA
TAF KVAD 280100Z 2801/2907 33006KT 9999 SKC QNH3019INS BECMG 2816/2817 31010G20KT 9999 SKC QNH3010INS BECMG 2822/2823 30009KT 9999 SCT050 QNH3010INS TX15/2821Z TN01/2809Z

Feb-28@
01:00 UTC

Feb-28 @ 01:00 UTC

Feb-28@
16:00 UTC

Feb-28 @ 16:00 UTC

TAF KVAD 280100Z 2801/2907 33006KT 9999 SKC QNH3019INS
Wind
  • 330° at 6 KTS
Cloud Levels
  • Clear skies

Feb-28@
16:00 UTC

Feb-28 @ 16:00 UTC

Feb-28@
22:00 UTC

Feb-28 @ 22:00 UTC

BECMG 2816/2817 31010G20KT 9999 SKC QNH3010INS

Becoming

Becoming Conditions expected by Fri, Feb 28, 2020 @ 17:00 UTC

Wind
  • 310° at 10 KTS
  • {Gusting to 20 KTS
Cloud Levels
  • Clear skies

Feb-28@
22:00 UTC

Feb-28 @ 22:00 UTC

Feb-29@
07:00 UTC

Feb-29 @ 07:00 UTC

BECMG 2822/2823 30009KT 9999 SCT050 QNH3010INS TX15/2821Z TN01/2809Z

Becoming

Becoming Conditions expected by Fri, Feb 28, 2020 @ 23:00 UTC

Wind
  • 300° at 9 KTS
Cloud Levels
  • Scattered at 5,000' AGL